sensor_id;sensor_type;location;lat;lon;timestamp;P1;durP1;ratioP1;P2;durP2;ratioP2
20657;SDS011;10488;50.846;4.078;2023-05-29T00:00:56;19.80;;;10.65;;
20657;SDS011;10488;50.846;4.078;2023-05-29T00:03:21;17.60;;;9.45;;
20657;SDS011;10488;50.846;4.078;2023-05-29T00:05:47;25.35;;;11.50;;
20657;SDS011;10488;50.846;4.078;2023-05-29T00:08:14;22.30;;;9.85;;
20657;SDS011;10488;50.846;4.078;2023-05-29T00:10:40;19.38;;;11.13;;
20657;SDS011;10488;50.846;4.078;2023-05-29T00:13:06;19.92;;;10.85;;
20657;SDS011;10488;50.846;4.078;2023-05-29T00:15:31;21.13;;;11.18;;
20657;SDS011;10488;50.846;4.078;2023-05-29T00:17:57;19.42;;;10.27;;
20657;SDS011;10488;50.846;4.078;2023-05-29T00:20:23;24.42;;;11.05;;
20657;SDS011;10488;50.846;4.078;2023-05-29T00:22:48;21.95;;;11.02;;
20657;SDS011;10488;50.846;4.078;2023-05-29T00:25:14;23.55;;;11.25;;
20657;SDS011;10488;50.846;4.078;2023-05-29T00:27:41;20.63;;;10.50;;
20657;SDS011;10488;50.846;4.078;2023-05-29T00:30:07;25.35;;;10.65;;
20657;SDS011;10488;50.846;4.078;2023-05-29T00:32:33;21.55;;;10.90;;
20657;SDS011;10488;50.846;4.078;2023-05-29T00:34:58;25.00;;;11.32;;
20657;SDS011;10488;50.846;4.078;2023-05-29T00:37:24;26.98;;;10.70;;
20657;SDS011;10488;50.846;4.078;2023-05-29T00:39:50;19.52;;;9.80;;
20657;SDS011;10488;50.846;4.078;2023-05-29T00:42:16;17.08;;;10.32;;
20657;SDS011;10488;50.846;4.078;2023-05-29T00:44:41;23.67;;;11.60;;
20657;SDS011;10488;50.846;4.078;2023-05-29T00:47:07;20.95;;;10.35;;
20657;SDS011;10488;50.846;4.078;2023-05-29T00:49:33;24.17;;;10.95;;
20657;SDS011;10488;50.846;4.078;2023-05-29T00:52:01;23.45;;;11.27;;
20657;SDS011;10488;50.846;4.078;2023-05-29T00:54:28;29.95;;;10.88;;
20657;SDS011;10488;50.846;4.078;2023-05-29T00:56:59;24.25;;;10.98;;
20657;SDS011;10488;50.846;4.078;2023-05-29T00:59:26;21.75;;;10.65;;
20657;SDS011;10488;50.846;4.078;2023-05-29T01:01:55;24.42;;;10.98;;
20657;SDS011;10488;50.846;4.078;2023-05-29T01:04:22;20.00;;;10.63;;
20657;SDS011;10488;50.846;4.078;2023-05-29T01:06:49;20.77;;;10.93;;
20657;SDS011;10488;50.846;4.078;2023-05-29T01:09:14;19.45;;;9.93;;
20657;SDS011;10488;50.846;4.078;2023-05-29T01:14:23;19.58;;;10.45;;
20657;SDS011;10488;50.846;4.078;2023-05-29T01:17:06;18.88;;;9.40;;
20657;SDS011;10488;50.846;4.078;2023-05-29T01:28:19;16.13;;;10.00;;
20657;SDS011;10488;50.846;4.078;2023-05-29T01:30:47;20.98;;;10.13;;
20657;SDS011;10488;50.846;4.078;2023-05-29T01:33:15;23.90;;;10.10;;
20657;SDS011;10488;50.846;4.078;2023-05-29T01:35:41;20.08;;;10.43;;
20657;SDS011;10488;50.846;4.078;2023-05-29T01:38:06;16.85;;;9.25;;
20657;SDS011;10488;50.846;4.078;2023-05-29T01:40:32;17.63;;;9.32;;
20657;SDS011;10488;50.846;4.078;2023-05-29T01:42:58;21.55;;;9.25;;
20657;SDS011;10488;50.846;4.078;2023-05-29T01:45:23;25.50;;;8.55;;
20657;SDS011;10488;50.846;4.078;2023-05-29T01:47:50;15.95;;;7.75;;
20657;SDS011;10488;50.846;4.078;2023-05-29T01:50:17;17.13;;;8.07;;
20657;SDS011;10488;50.846;4.078;2023-05-29T01:52:44;18.23;;;8.63;;
20657;SDS011;10488;50.846;4.078;2023-05-29T01:55:10;17.55;;;8.07;;
20657;SDS011;10488;50.846;4.078;2023-05-29T01:57:36;18.75;;;8.23;;
20657;SDS011;10488;50.846;4.078;2023-05-29T02:00:03;17.23;;;8.18;;
20657;SDS011;10488;50.846;4.078;2023-05-29T02:02:37;22.55;;;9.18;;
20657;SDS011;10488;50.846;4.078;2023-05-29T02:05:04;19.23;;;8.77;;
20657;SDS011;10488;50.846;4.078;2023-05-29T02:07:30;16.85;;;8.07;;
20657;SDS011;10488;50.846;4.078;2023-05-29T02:09:56;16.73;;;8.15;;
20657;SDS011;10488;50.846;4.078;2023-05-29T02:12:22;20.05;;;8.60;;
20657;SDS011;10488;50.846;4.078;2023-05-29T02:14:47;21.05;;;7.60;;
20657;SDS011;10488;50.846;4.078;2023-05-29T02:17:13;19.38;;;7.80;;
20657;SDS011;10488;50.846;4.078;2023-05-29T02:19:41;15.93;;;7.35;;
20657;SDS011;10488;50.846;4.078;2023-05-29T02:22:06;17.85;;;6.80;;
20657;SDS011;10488;50.846;4.078;2023-05-29T02:24:32;19.15;;;7.05;;
20657;SDS011;10488;50.846;4.078;2023-05-29T02:26:58;14.80;;;6.63;;
20657;SDS011;10488;50.846;4.078;2023-05-29T02:29:23;17.02;;;7.10;;
20657;SDS011;10488;50.846;4.078;2023-05-29T02:31:49;17.95;;;7.13;;
20657;SDS011;10488;50.846;4.078;2023-05-29T02:34:15;16.10;;;6.70;;
20657;SDS011;10488;50.846;4.078;2023-05-29T02:36:40;20.15;;;6.60;;
20657;SDS011;10488;50.846;4.078;2023-05-29T02:39:07;13.07;;;6.38;;
20657;SDS011;10488;50.846;4.078;2023-05-29T02:41:32;20.25;;;7.22;;
20657;SDS011;10488;50.846;4.078;2023-05-29T02:43:58;13.35;;;6.45;;
20657;SDS011;10488;50.846;4.078;2023-05-29T02:46:23;15.18;;;5.57;;
20657;SDS011;10488;50.846;4.078;2023-05-29T02:48:49;25.92;;;6.38;;
20657;SDS011;10488;50.846;4.078;2023-05-29T02:51:15;19.02;;;6.10;;
20657;SDS011;10488;50.846;4.078;2023-05-29T02:53:40;13.02;;;5.43;;
20657;SDS011;10488;50.846;4.078;2023-05-29T02:56:07;13.07;;;5.35;;
20657;SDS011;10488;50.846;4.078;2023-05-29T02:58:34;15.15;;;5.15;;
20657;SDS011;10488;50.846;4.078;2023-05-29T03:01:00;12.75;;;4.47;;
20657;SDS011;10488;50.846;4.078;2023-05-29T03:03:28;12.75;;;4.93;;
20657;SDS011;10488;50.846;4.078;2023-05-29T03:05:54;12.73;;;4.28;;
20657;SDS011;10488;50.846;4.078;2023-05-29T03:08:20;15.38;;;4.88;;
20657;SDS011;10488;50.846;4.078;2023-05-29T03:10:46;16.02;;;4.78;;
20657;SDS011;10488;50.846;4.078;2023-05-29T03:13:12;13.55;;;4.65;;
20657;SDS011;10488;50.846;4.078;2023-05-29T03:15:38;14.32;;;4.57;;
20657;SDS011;10488;50.846;4.078;2023-05-29T03:18:04;13.80;;;4.35;;
20657;SDS011;10488;50.846;4.078;2023-05-29T03:20:29;18.70;;;5.03;;
20657;SDS011;10488;50.846;4.078;2023-05-29T03:22:55;21.55;;;4.18;;
20657;SDS011;10488;50.846;4.078;2023-05-29T03:25:21;21.02;;;4.60;;
20657;SDS011;10488;50.846;4.078;2023-05-29T03:27:47;17.30;;;4.30;;
20657;SDS011;10488;50.846;4.078;2023-05-29T03:30:13;20.67;;;4.63;;
20657;SDS011;10488;50.846;4.078;2023-05-29T03:32:39;15.60;;;3.88;;
20657;SDS011;10488;50.846;4.078;2023-05-29T03:35:05;15.65;;;4.28;;
20657;SDS011;10488;50.846;4.078;2023-05-29T03:37:31;12.73;;;3.75;;
20657;SDS011;10488;50.846;4.078;2023-05-29T03:39:57;10.50;;;3.20;;
20657;SDS011;10488;50.846;4.078;2023-05-29T03:42:22;15.80;;;4.05;;
20657;SDS011;10488;50.846;4.078;2023-05-29T03:44:48;22.75;;;4.40;;
20657;SDS011;10488;50.846;4.078;2023-05-29T03:47:14;11.88;;;4.28;;
20657;SDS011;10488;50.846;4.078;2023-05-29T03:49:39;15.23;;;4.88;;
20657;SDS011;10488;50.846;4.078;2023-05-29T03:52:05;13.63;;;4.50;;
20657;SDS011;10488;50.846;4.078;2023-05-29T03:54:31;18.88;;;4.10;;
20657;SDS011;10488;50.846;4.078;2023-05-29T03:56:57;13.55;;;3.90;;
20657;SDS011;10488;50.846;4.078;2023-05-29T03:59:22;14.82;;;4.82;;
20657;SDS011;10488;50.846;4.078;2023-05-29T04:01:48;14.10;;;3.90;;
20657;SDS011;10488;50.846;4.078;2023-05-29T04:04:14;18.27;;;4.00;;
20657;SDS011;10488;50.846;4.078;2023-05-29T04:06:39;15.32;;;3.90;;
20657;SDS011;10488;50.846;4.078;2023-05-29T04:09:05;17.88;;;3.67;;
20657;SDS011;10488;50.846;4.078;2023-05-29T04:11:32;11.05;;;3.20;;
20657;SDS011;10488;50.846;4.078;2023-05-29T04:13:59;14.98;;;3.22;;
20657;SDS011;10488;50.846;4.078;2023-05-29T04:16:26;18.33;;;3.95;;
20657;SDS011;10488;50.846;4.078;2023-05-29T04:18:53;19.88;;;4.75;;
20657;SDS011;10488;50.846;4.078;2023-05-29T04:21:19;14.70;;;3.80;;
20657;SDS011;10488;50.846;4.078;2023-05-29T04:23:44;17.02;;;5.05;;
20657;SDS011;10488;50.846;4.078;2023-05-29T04:26:10;14.77;;;3.38;;
20657;SDS011;10488;50.846;4.078;2023-05-29T04:28:36;8.93;;;3.25;;
20657;SDS011;10488;50.846;4.078;2023-05-29T04:31:02;17.48;;;3.35;;
20657;SDS011;10488;50.846;4.078;2023-05-29T04:33:28;13.65;;;3.70;;
20657;SDS011;10488;50.846;4.078;2023-05-29T04:35:54;14.82;;;3.28;;
20657;SDS011;10488;50.846;4.078;2023-05-29T04:38:20;12.48;;;3.38;;
20657;SDS011;10488;50.846;4.078;2023-05-29T04:40:50;13.65;;;3.03;;
20657;SDS011;10488;50.846;4.078;2023-05-29T04:43:16;15.82;;;3.70;;
20657;SDS011;10488;50.846;4.078;2023-05-29T04:45:42;17.95;;;3.55;;
20657;SDS011;10488;50.846;4.078;2023-05-29T04:48:08;14.98;;;3.92;;
20657;SDS011;10488;50.846;4.078;2023-05-29T04:50:34;17.17;;;4.07;;
20657;SDS011;10488;50.846;4.078;2023-05-29T04:53:01;14.18;;;4.15;;
20657;SDS011;10488;50.846;4.078;2023-05-29T04:55:27;13.48;;;3.15;;
20657;SDS011;10488;50.846;4.078;2023-05-29T04:57:53;14.95;;;3.53;;
20657;SDS011;10488;50.846;4.078;2023-05-29T05:00:19;18.45;;;3.75;;
20657;SDS011;10488;50.846;4.078;2023-05-29T05:02:45;13.10;;;3.45;;
20657;SDS011;10488;50.846;4.078;2023-05-29T05:05:11;14.25;;;3.28;;
20657;SDS011;10488;50.846;4.078;2023-05-29T05:07:37;16.67;;;3.50;;
20657;SDS011;10488;50.846;4.078;2023-05-29T05:10:03;13.55;;;3.75;;
20657;SDS011;10488;50.846;4.078;2023-05-29T05:12:29;16.73;;;4.32;;
20657;SDS011;10488;50.846;4.078;2023-05-29T05:14:55;17.85;;;4.13;;
20657;SDS011;10488;50.846;4.078;2023-05-29T05:17:21;12.35;;;3.65;;
20657;SDS011;10488;50.846;4.078;2023-05-29T05:19:47;15.80;;;4.30;;
20657;SDS011;10488;50.846;4.078;2023-05-29T05:22:14;15.05;;;3.63;;
20657;SDS011;10488;50.846;4.078;2023-05-29T05:24:40;16.88;;;4.35;;
20657;SDS011;10488;50.846;4.078;2023-05-29T05:27:05;15.65;;;3.20;;
20657;SDS011;10488;50.846;4.078;2023-05-29T05:29:31;11.60;;;3.17;;
20657;SDS011;10488;50.846;4.078;2023-05-29T05:31:57;14.82;;;3.70;;
20657;SDS011;10488;50.846;4.078;2023-05-29T05:34:23;18.15;;;3.88;;
20657;SDS011;10488;50.846;4.078;2023-05-29T05:36:49;9.55;;;3.80;;
20657;SDS011;10488;50.846;4.078;2023-05-29T05:39:14;16.38;;;3.90;;
20657;SDS011;10488;50.846;4.078;2023-05-29T05:41:40;13.13;;;3.03;;
20657;SDS011;10488;50.846;4.078;2023-05-29T05:44:06;14.68;;;3.70;;
20657;SDS011;10488;50.846;4.078;2023-05-29T05:46:31;15.05;;;4.72;;
20657;SDS011;10488;50.846;4.078;2023-05-29T05:48:58;14.90;;;3.60;;
20657;SDS011;10488;50.846;4.078;2023-05-29T05:51:25;13.75;;;3.30;;
20657;SDS011;10488;50.846;4.078;2023-05-29T05:53:51;14.85;;;3.33;;
20657;SDS011;10488;50.846;4.078;2023-05-29T05:56:17;18.02;;;3.47;;
20657;SDS011;10488;50.846;4.078;2023-05-29T05:58:43;7.13;;;2.83;;
20657;SDS011;10488;50.846;4.078;2023-05-29T06:01:09;17.48;;;3.35;;
20657;SDS011;10488;50.846;4.078;2023-05-29T06:03:35;9.82;;;3.00;;
20657;SDS011;10488;50.846;4.078;2023-05-29T06:06:02;8.10;;;2.70;;
20657;SDS011;10488;50.846;4.078;2023-05-29T06:08:29;15.10;;;3.22;;
20657;SDS011;10488;50.846;4.078;2023-05-29T06:10:55;10.18;;;2.85;;
20657;SDS011;10488;50.846;4.078;2023-05-29T06:13:21;16.05;;;3.38;;
20657;SDS011;10488;50.846;4.078;2023-05-29T06:15:47;12.00;;;3.20;;
20657;SDS011;10488;50.846;4.078;2023-05-29T06:18:12;10.27;;;3.47;;
20657;SDS011;10488;50.846;4.078;2023-05-29T06:20:38;9.80;;;3.33;;
20657;SDS011;10488;50.846;4.078;2023-05-29T06:23:04;16.88;;;3.35;;
20657;SDS011;10488;50.846;4.078;2023-05-29T06:25:29;15.80;;;3.20;;
20657;SDS011;10488;50.846;4.078;2023-05-29T06:28:01;15.45;;;3.30;;
20657;SDS011;10488;50.846;4.078;2023-05-29T06:30:27;7.95;;;2.60;;
20657;SDS011;10488;50.846;4.078;2023-05-29T06:32:53;15.38;;;3.05;;
20657;SDS011;10488;50.846;4.078;2023-05-29T06:35:19;11.60;;;2.92;;
20657;SDS011;10488;50.846;4.078;2023-05-29T06:37:45;16.50;;;3.03;;
20657;SDS011;10488;50.846;4.078;2023-05-29T06:40:12;12.85;;;3.03;;
20657;SDS011;10488;50.846;4.078;2023-05-29T06:42:38;13.80;;;3.35;;
20657;SDS011;10488;50.846;4.078;2023-05-29T06:45:04;17.65;;;2.80;;
20657;SDS011;10488;50.846;4.078;2023-05-29T06:47:30;11.20;;;2.72;;
20657;SDS011;10488;50.846;4.078;2023-05-29T06:49:56;14.15;;;3.38;;
20657;SDS011;10488;50.846;4.078;2023-05-29T06:52:22;8.23;;;3.03;;
20657;SDS011;10488;50.846;4.078;2023-05-29T06:54:47;9.63;;;2.90;;
20657;SDS011;10488;50.846;4.078;2023-05-29T06:57:13;10.52;;;2.75;;
20657;SDS011;10488;50.846;4.078;2023-05-29T06:59:39;16.02;;;3.85;;
20657;SDS011;10488;50.846;4.078;2023-05-29T07:02:05;12.40;;;3.58;;
20657;SDS011;10488;50.846;4.078;2023-05-29T07:04:31;6.80;;;2.33;;
20657;SDS011;10488;50.846;4.078;2023-05-29T07:06:57;12.48;;;3.03;;
20657;SDS011;10488;50.846;4.078;2023-05-29T07:09:22;12.13;;;2.95;;
20657;SDS011;10488;50.846;4.078;2023-05-29T07:11:50;8.35;;;2.25;;
20657;SDS011;10488;50.846;4.078;2023-05-29T07:14:16;7.38;;;2.05;;
20657;SDS011;10488;50.846;4.078;2023-05-29T07:16:41;12.60;;;2.80;;
20657;SDS011;10488;50.846;4.078;2023-05-29T07:19:07;12.73;;;2.85;;
20657;SDS011;10488;50.846;4.078;2023-05-29T07:21:33;11.70;;;3.50;;
20657;SDS011;10488;50.846;4.078;2023-05-29T07:23:59;12.27;;;3.00;;
20657;SDS011;10488;50.846;4.078;2023-05-29T07:26:25;12.05;;;2.85;;
20657;SDS011;10488;50.846;4.078;2023-05-29T07:28:50;9.95;;;2.67;;
20657;SDS011;10488;50.846;4.078;2023-05-29T07:31:17;12.27;;;3.63;;
20657;SDS011;10488;50.846;4.078;2023-05-29T07:33:42;11.40;;;2.65;;
20657;SDS011;10488;50.846;4.078;2023-05-29T07:36:09;8.10;;;2.70;;
20657;SDS011;10488;50.846;4.078;2023-05-29T07:38:35;12.02;;;2.80;;
20657;SDS011;10488;50.846;4.078;2023-05-29T07:41:01;8.32;;;2.80;;
20657;SDS011;10488;50.846;4.078;2023-05-29T07:43:27;10.95;;;2.95;;
20657;SDS011;10488;50.846;4.078;2023-05-29T07:45:52;13.57;;;2.70;;
20657;SDS011;10488;50.846;4.078;2023-05-29T07:48:18;9.52;;;3.15;;
20657;SDS011;10488;50.846;4.078;2023-05-29T07:50:44;13.23;;;2.95;;
20657;SDS011;10488;50.846;4.078;2023-05-29T07:53:09;12.63;;;2.78;;
20657;SDS011;10488;50.846;4.078;2023-05-29T07:55:35;11.77;;;2.33;;
20657;SDS011;10488;50.846;4.078;2023-05-29T07:58:01;7.53;;;2.95;;
20657;SDS011;10488;50.846;4.078;2023-05-29T08:00:27;11.48;;;2.67;;
20657;SDS011;10488;50.846;4.078;2023-05-29T08:02:53;11.30;;;2.88;;
20657;SDS011;10488;50.846;4.078;2023-05-29T08:05:19;12.88;;;2.72;;
20657;SDS011;10488;50.846;4.078;2023-05-29T08:07:45;11.05;;;2.85;;
20657;SDS011;10488;50.846;4.078;2023-05-29T08:10:13;10.68;;;2.97;;
20657;SDS011;10488;50.846;4.078;2023-05-29T08:12:39;12.93;;;3.45;;
20657;SDS011;10488;50.846;4.078;2023-05-29T08:15:05;8.55;;;2.72;;
20657;SDS011;10488;50.846;4.078;2023-05-29T08:17:31;13.85;;;2.78;;
20657;SDS011;10488;50.846;4.078;2023-05-29T08:19:56;7.10;;;2.60;;
20657;SDS011;10488;50.846;4.078;2023-05-29T08:22:27;9.50;;;2.38;;
20657;SDS011;10488;50.846;4.078;2023-05-29T08:24:53;12.63;;;3.17;;
20657;SDS011;10488;50.846;4.078;2023-05-29T08:27:19;12.88;;;2.70;;
20657;SDS011;10488;50.846;4.078;2023-05-29T08:29:45;10.23;;;2.17;;
20657;SDS011;10488;50.846;4.078;2023-05-29T08:32:10;9.85;;;2.58;;
20657;SDS011;10488;50.846;4.078;2023-05-29T08:34:36;11.57;;;2.05;;
20657;SDS011;10488;50.846;4.078;2023-05-29T08:37:02;13.40;;;2.85;;
20657;SDS011;10488;50.846;4.078;2023-05-29T08:39:27;7.10;;;2.35;;
20657;SDS011;10488;50.846;4.078;2023-05-29T08:44:24;9.90;;;2.90;;
20657;SDS011;10488;50.846;4.078;2023-05-29T08:46:54;10.63;;;2.80;;
20657;SDS011;10488;50.846;4.078;2023-05-29T08:49:21;10.18;;;2.53;;
20657;SDS011;10488;50.846;4.078;2023-05-29T08:51:47;10.35;;;2.28;;
20657;SDS011;10488;50.846;4.078;2023-05-29T08:54:18;9.18;;;2.75;;
20657;SDS011;10488;50.846;4.078;2023-05-29T08:56:43;14.02;;;3.28;;
20657;SDS011;10488;50.846;4.078;2023-05-29T08:59:09;9.20;;;2.55;;
20657;SDS011;10488;50.846;4.078;2023-05-29T09:01:38;12.00;;;3.10;;
20657;SDS011;10488;50.846;4.078;2023-05-29T09:04:07;11.27;;;2.95;;
20657;SDS011;10488;50.846;4.078;2023-05-29T09:06:33;6.25;;;2.47;;
20657;SDS011;10488;50.846;4.078;2023-05-29T09:08:59;14.75;;;3.47;;
20657;SDS011;10488;50.846;4.078;2023-05-29T09:11:25;11.27;;;2.63;;
20657;SDS011;10488;50.846;4.078;2023-05-29T09:13:52;9.57;;;2.58;;
20657;SDS011;10488;50.846;4.078;2023-05-29T09:16:18;9.50;;;2.90;;
20657;SDS011;10488;50.846;4.078;2023-05-29T09:18:44;8.60;;;2.67;;
20657;SDS011;10488;50.846;4.078;2023-05-29T09:21:26;11.88;;;2.28;;
20657;SDS011;10488;50.846;4.078;2023-05-29T09:23:53;7.47;;;2.30;;
20657;SDS011;10488;50.846;4.078;2023-05-29T09:26:21;10.15;;;2.50;;
20657;SDS011;10488;50.846;4.078;2023-05-29T09:28:48;9.27;;;2.90;;
20657;SDS011;10488;50.846;4.078;2023-05-29T09:31:14;10.07;;;2.53;;
20657;SDS011;10488;50.846;4.078;2023-05-29T09:33:48;8.43;;;2.45;;
20657;SDS011;10488;50.846;4.078;2023-05-29T09:36:21;9.30;;;2.80;;
20657;SDS011;10488;50.846;4.078;2023-05-29T09:38:47;8.80;;;2.45;;
20657;SDS011;10488;50.846;4.078;2023-05-29T09:41:13;9.98;;;2.95;;
20657;SDS011;10488;50.846;4.078;2023-05-29T09:43:47;11.45;;;3.15;;
20657;SDS011;10488;50.846;4.078;2023-05-29T09:46:15;10.23;;;2.55;;
20657;SDS011;10488;50.846;4.078;2023-05-29T09:48:45;10.10;;;2.53;;
20657;SDS011;10488;50.846;4.078;2023-05-29T09:51:20;10.85;;;3.63;;
20657;SDS011;10488;50.846;4.078;2023-05-29T09:53:48;11.27;;;2.40;;
20657;SDS011;10488;50.846;4.078;2023-05-29T09:56:16;8.50;;;2.72;;
20657;SDS011;10488;50.846;4.078;2023-05-29T09:58:43;10.73;;;2.78;;
20657;SDS011;10488;50.846;4.078;2023-05-29T10:01:13;7.97;;;2.53;;
20657;SDS011;10488;50.846;4.078;2023-05-29T10:03:43;9.48;;;1.95;;
20657;SDS011;10488;50.846;4.078;2023-05-29T10:06:11;7.05;;;2.03;;
20657;SDS011;10488;50.846;4.078;2023-05-29T10:08:47;8.25;;;2.70;;
20657;SDS011;10488;50.846;4.078;2023-05-29T10:11:19;11.88;;;2.45;;
20657;SDS011;10488;50.846;4.078;2023-05-29T10:13:50;11.27;;;3.30;;
20657;SDS011;10488;50.846;4.078;2023-05-29T10:16:17;11.82;;;2.83;;
20657;SDS011;10488;50.846;4.078;2023-05-29T10:18:50;7.70;;;2.50;;
20657;SDS011;10488;50.846;4.078;2023-05-29T10:21:21;9.93;;;3.17;;
20657;SDS011;10488;50.846;4.078;2023-05-29T10:23:48;14.23;;;2.90;;
20657;SDS011;10488;50.846;4.078;2023-05-29T10:26:18;8.05;;;2.45;;
20657;SDS011;10488;50.846;4.078;2023-05-29T10:40:28;10.63;;;2.67;;
20657;SDS011;10488;50.846;4.078;2023-05-29T10:42:54;10.82;;;2.88;;
20657;SDS011;10488;50.846;4.078;2023-05-29T10:47:56;10.57;;;2.75;;
20657;SDS011;10488;50.846;4.078;2023-05-29T10:50:45;11.55;;;2.67;;
20657;SDS011;10488;50.846;4.078;2023-05-29T10:53:22;10.73;;;2.83;;
20657;SDS011;10488;50.846;4.078;2023-05-29T10:55:51;12.25;;;2.80;;
20657;SDS011;10488;50.846;4.078;2023-05-29T10:58:18;8.77;;;2.47;;
20657;SDS011;10488;50.846;4.078;2023-05-29T11:00:45;8.98;;;2.55;;
20657;SDS011;10488;50.846;4.078;2023-05-29T11:03:14;11.57;;;3.13;;
20657;SDS011;10488;50.846;4.078;2023-05-29T11:05:56;10.95;;;3.17;;
20657;SDS011;10488;50.846;4.078;2023-05-29T11:08:32;6.95;;;2.45;;
20657;SDS011;10488;50.846;4.078;2023-05-29T11:11:12;13.95;;;3.58;;
20657;SDS011;10488;50.846;4.078;2023-05-29T11:13:55;8.73;;;2.65;;
20657;SDS011;10488;50.846;4.078;2023-05-29T11:18:51;9.48;;;2.72;;
20657;SDS011;10488;50.846;4.078;2023-05-29T11:24:00;14.38;;;2.80;;
20657;SDS011;10488;50.846;4.078;2023-05-29T11:26:31;9.38;;;2.50;;
20657;SDS011;10488;50.846;4.078;2023-05-29T11:29:01;9.95;;;2.88;;
20657;SDS011;10488;50.846;4.078;2023-05-29T11:31:35;9.63;;;3.20;;
20657;SDS011;10488;50.846;4.078;2023-05-29T11:34:04;14.25;;;2.90;;
20657;SDS011;10488;50.846;4.078;2023-05-29T11:36:33;14.25;;;2.30;;
20657;SDS011;10488;50.846;4.078;2023-05-29T11:39:00;17.10;;;3.28;;
20657;SDS011;10488;50.846;4.078;2023-05-29T11:41:27;10.30;;;3.10;;
20657;SDS011;10488;50.846;4.078;2023-05-29T11:43:56;15.30;;;3.03;;
20657;SDS011;10488;50.846;4.078;2023-05-29T11:46:22;9.02;;;2.50;;
20657;SDS011;10488;50.846;4.078;2023-05-29T11:48:48;10.85;;;2.95;;
20657;SDS011;10488;50.846;4.078;2023-05-29T11:51:14;12.82;;;2.95;;
20657;SDS011;10488;50.846;4.078;2023-05-29T11:53:43;11.10;;;3.40;;
20657;SDS011;10488;50.846;4.078;2023-05-29T11:56:11;7.07;;;2.10;;
20657;SDS011;10488;50.846;4.078;2023-05-29T11:58:38;9.00;;;2.40;;
20657;SDS011;10488;50.846;4.078;2023-05-29T12:01:04;9.88;;;2.33;;
20657;SDS011;10488;50.846;4.078;2023-05-29T12:03:36;11.75;;;2.58;;
20657;SDS011;10488;50.846;4.078;2023-05-29T12:06:06;8.55;;;2.67;;
20657;SDS011;10488;50.846;4.078;2023-05-29T12:08:32;12.65;;;2.97;;
20657;SDS011;10488;50.846;4.078;2023-05-29T12:10:58;7.60;;;2.50;;
20657;SDS011;10488;50.846;4.078;2023-05-29T12:13:23;10.90;;;3.22;;
20657;SDS011;10488;50.846;4.078;2023-05-29T12:15:51;16.90;;;2.83;;
20657;SDS011;10488;50.846;4.078;2023-05-29T12:18:21;6.30;;;2.35;;
20657;SDS011;10488;50.846;4.078;2023-05-29T12:20:47;12.18;;;3.25;;
20657;SDS011;10488;50.846;4.078;2023-05-29T12:23:13;10.25;;;2.22;;
20657;SDS011;10488;50.846;4.078;2023-05-29T12:25:38;8.52;;;2.47;;
20657;SDS011;10488;50.846;4.078;2023-05-29T12:28:04;10.95;;;2.50;;
20657;SDS011;10488;50.846;4.078;2023-05-29T12:30:30;6.38;;;2.53;;
20657;SDS011;10488;50.846;4.078;2023-05-29T12:32:56;11.70;;;3.28;;
20657;SDS011;10488;50.846;4.078;2023-05-29T12:35:25;10.52;;;2.65;;
20657;SDS011;10488;50.846;4.078;2023-05-29T12:37:58;10.95;;;3.03;;
20657;SDS011;10488;50.846;4.078;2023-05-29T12:40:33;6.93;;;2.30;;
20657;SDS011;10488;50.846;4.078;2023-05-29T12:43:00;10.45;;;2.42;;
20657;SDS011;10488;50.846;4.078;2023-05-29T12:45:30;9.05;;;3.15;;
20657;SDS011;10488;50.846;4.078;2023-05-29T12:48:01;10.15;;;3.03;;
20657;SDS011;10488;50.846;4.078;2023-05-29T12:50:31;6.97;;;2.78;;
20657;SDS011;10488;50.846;4.078;2023-05-29T12:53:02;10.68;;;2.38;;
20657;SDS011;10488;50.846;4.078;2023-05-29T12:55:33;8.82;;;2.67;;
20657;SDS011;10488;50.846;4.078;2023-05-29T12:58:06;8.77;;;2.58;;
20657;SDS011;10488;50.846;4.078;2023-05-29T13:00:40;10.50;;;2.72;;
20657;SDS011;10488;50.846;4.078;2023-05-29T13:03:07;12.13;;;3.08;;
20657;SDS011;10488;50.846;4.078;2023-05-29T13:05:34;7.85;;;2.47;;
20657;SDS011;10488;50.846;4.078;2023-05-29T13:08:00;8.73;;;2.67;;
20657;SDS011;10488;50.846;4.078;2023-05-29T13:10:27;11.55;;;3.30;;
20657;SDS011;10488;50.846;4.078;2023-05-29T13:12:53;6.20;;;2.20;;
20657;SDS011;10488;50.846;4.078;2023-05-29T13:15:23;6.35;;;2.67;;
20657;SDS011;10488;50.846;4.078;2023-05-29T13:17:49;14.25;;;2.83;;
20657;SDS011;10488;50.846;4.078;2023-05-29T13:20:15;10.95;;;2.78;;
20657;SDS011;10488;50.846;4.078;2023-05-29T13:22:42;9.23;;;3.17;;
20657;SDS011;10488;50.846;4.078;2023-05-29T13:25:12;11.20;;;3.05;;
20657;SDS011;10488;50.846;4.078;2023-05-29T13:27:43;8.77;;;2.45;;
20657;SDS011;10488;50.846;4.078;2023-05-29T13:30:10;7.35;;;2.58;;
20657;SDS011;10488;50.846;4.078;2023-05-29T13:32:37;19.60;;;2.88;;
20657;SDS011;10488;50.846;4.078;2023-05-29T13:35:03;11.10;;;2.55;;
20657;SDS011;10488;50.846;4.078;2023-05-29T13:37:30;8.15;;;2.60;;
20657;SDS011;10488;50.846;4.078;2023-05-29T13:39:56;15.20;;;2.95;;
20657;SDS011;10488;50.846;4.078;2023-05-29T13:42:22;8.35;;;2.72;;
20657;SDS011;10488;50.846;4.078;2023-05-29T13:44:48;11.82;;;3.25;;
20657;SDS011;10488;50.846;4.078;2023-05-29T13:47:14;11.07;;;2.70;;
20657;SDS011;10488;50.846;4.078;2023-05-29T13:49:40;10.23;;;2.63;;
20657;SDS011;10488;50.846;4.078;2023-05-29T13:52:06;9.75;;;2.97;;
20657;SDS011;10488;50.846;4.078;2023-05-29T13:54:32;9.13;;;2.33;;
20657;SDS011;10488;50.846;4.078;2023-05-29T13:57:01;14.25;;;3.03;;
20657;SDS011;10488;50.846;4.078;2023-05-29T13:59:31;7.40;;;3.13;;
20657;SDS011;10488;50.846;4.078;2023-05-29T14:01:58;14.02;;;2.90;;
20657;SDS011;10488;50.846;4.078;2023-05-29T14:04:24;10.13;;;2.83;;
20657;SDS011;10488;50.846;4.078;2023-05-29T14:06:50;7.20;;;2.45;;
20657;SDS011;10488;50.846;4.078;2023-05-29T14:09:16;6.82;;;2.33;;
20657;SDS011;10488;50.846;4.078;2023-05-29T14:11:43;10.30;;;3.00;;
20657;SDS011;10488;50.846;4.078;2023-05-29T14:14:09;6.10;;;2.65;;
20657;SDS011;10488;50.846;4.078;2023-05-29T14:16:35;12.30;;;2.90;;
20657;SDS011;10488;50.846;4.078;2023-05-29T14:19:01;7.57;;;2.88;;
20657;SDS011;10488;50.846;4.078;2023-05-29T14:21:26;10.32;;;2.80;;
20657;SDS011;10488;50.846;4.078;2023-05-29T14:23:52;10.05;;;2.53;;
20657;SDS011;10488;50.846;4.078;2023-05-29T14:26:17;8.90;;;2.78;;
20657;SDS011;10488;50.846;4.078;2023-05-29T14:28:43;8.32;;;2.63;;
20657;SDS011;10488;50.846;4.078;2023-05-29T14:31:09;7.60;;;2.53;;
20657;SDS011;10488;50.846;4.078;2023-05-29T14:33:35;9.50;;;2.53;;
20657;SDS011;10488;50.846;4.078;2023-05-29T14:36:01;7.90;;;3.17;;
20657;SDS011;10488;50.846;4.078;2023-05-29T14:38:29;8.82;;;3.40;;
20657;SDS011;10488;50.846;4.078;2023-05-29T14:40:54;12.05;;;3.58;;
20657;SDS011;10488;50.846;4.078;2023-05-29T14:43:20;6.50;;;2.20;;
20657;SDS011;10488;50.846;4.078;2023-05-29T14:45:46;8.13;;;3.00;;
20657;SDS011;10488;50.846;4.078;2023-05-29T14:48:11;9.98;;;2.75;;
20657;SDS011;10488;50.846;4.078;2023-05-29T14:50:37;6.03;;;2.60;;
20657;SDS011;10488;50.846;4.078;2023-05-29T14:53:03;12.60;;;3.65;;
20657;SDS011;10488;50.846;4.078;2023-05-29T14:55:28;15.65;;;2.97;;
20657;SDS011;10488;50.846;4.078;2023-05-29T14:57:57;8.02;;;2.88;;
20657;SDS011;10488;50.846;4.078;2023-05-29T15:00:22;11.18;;;2.83;;
20657;SDS011;10488;50.846;4.078;2023-05-29T15:02:48;8.13;;;2.67;;
20657;SDS011;10488;50.846;4.078;2023-05-29T15:05:14;12.40;;;3.03;;
20657;SDS011;10488;50.846;4.078;2023-05-29T15:07:39;7.72;;;2.90;;